createdAt,value
2019-05-09T00:00:33.957Z,10.91
2019-05-09T00:01:14.481Z,10.95
2019-05-09T00:01:54.761Z,10.99
2019-05-09T00:02:35.181Z,11.11
2019-05-09T00:03:15.505Z,11.09
2019-05-09T00:03:55.944Z,11.11
2019-05-09T00:04:37.549Z,11.13
2019-05-09T00:05:17.673Z,11.08
2019-05-09T00:05:58.224Z,11.06
2019-05-09T00:06:40.406Z,11.08
2019-05-09T00:07:23.084Z,11.08
2019-05-09T00:08:03.229Z,11.17
2019-05-09T00:08:43.841Z,11.23
2019-05-09T00:09:23.156Z,11.16
2019-05-09T00:12:14.153Z,11.03
2019-05-09T00:12:57.730Z,11.09
2019-05-09T00:13:38.521Z,11.13
2019-05-09T00:14:23.691Z,11.05
2019-05-09T00:15:04.365Z,11.08
2019-05-09T00:15:46.360Z,11.13
2019-05-09T00:16:26.905Z,11.09
2019-05-09T00:17:07.333Z,11.16
2019-05-09T00:17:47.681Z,11.16
2019-05-09T00:18:28.215Z,11.16
2019-05-09T00:19:13.989Z,11.19
2019-05-09T00:19:54.306Z,11.19
2019-05-09T00:20:36.221Z,11.17
2019-05-09T00:21:16.549Z,11.16
2019-05-09T00:21:57.017Z,11.31
2019-05-09T00:22:37.344Z,11.31
2019-05-09T00:23:17.704Z,11.35
2019-05-09T00:23:58.301Z,11.35
2019-05-09T00:24:38.706Z,11.36
2019-05-09T00:25:20.778Z,11.41
2019-05-09T00:26:04.117Z,11.51
2019-05-09T00:27:25.192Z,11.46
2019-05-09T00:28:05.611Z,11.42
2019-05-09T00:28:46.906Z,11.54
2019-05-09T00:29:29.441Z,11.46
2019-05-09T00:30:13.780Z,11.45
2019-05-09T00:30:54.434Z,11.51
2019-05-09T00:31:34.415Z,11.48
2019-05-09T00:32:15.868Z,11.45
2019-05-09T00:32:56.248Z,11.44
2019-05-09T00:33:37.046Z,11.48
2019-05-09T00:34:17.645Z,11.48
2019-05-09T00:34:57.918Z,11.64
2019-05-09T00:35:38.486Z,11.59
2019-05-09T00:36:20.494Z,11.67
2019-05-09T00:37:03.065Z,11.6
2019-05-09T00:37:43.638Z,11.64
2019-05-09T00:38:24.061Z,11.66
2019-05-09T00:39:04.260Z,11.59
2019-05-09T00:39:44.677Z,11.66
2019-05-09T00:40:24.967Z,11.56
2019-05-09T00:41:05.472Z,11.48
2019-05-09T00:41:45.996Z,11.41
2019-05-09T00:42:27.194Z,11.44
2019-05-09T00:43:47.989Z,11.28
2019-05-09T00:44:28.700Z,11.24
2019-05-09T00:45:15.308Z,11.2
2019-05-09T00:45:55.718Z,11.17
2019-05-09T00:46:38.284Z,11.17
2019-05-09T00:47:18.573Z,11.08
2019-05-09T00:47:59.616Z,11.19
2019-05-09T00:48:40.124Z,10.99
2019-05-09T00:49:23.310Z,10.93
2019-05-09T00:50:05.257Z,10.93
2019-05-09T00:50:54.510Z,10.9
2019-05-09T00:51:43.693Z,10.95
2019-05-09T00:57:20.117Z,10.57
2019-05-09T00:58:10.308Z,10.57
2019-05-09T01:01:23.653Z,10.35
2019-05-09T01:02:05.459Z,10.32
2019-05-09T01:02:46.532Z,10.18
2019-05-09T01:03:26.934Z,10.22
2019-05-09T01:04:08.190Z,10.29
2019-05-09T01:04:48.978Z,10.22
2019-05-09T01:05:33.900Z,10.2
2019-05-09T01:06:13.357Z,10.25
2019-05-09T01:06:54.221Z,10.24
2019-05-09T01:07:35.268Z,10.18
2019-05-09T01:08:15.750Z,10.2
2019-05-09T01:08:56.264Z,10.25
2019-05-09T01:09:39.066Z,10.22
2019-05-09T01:10:19.472Z,10.18
2019-05-09T01:11:09.250Z,10.18
2019-05-09T01:11:40.353Z,10.2
2019-05-09T01:12:20.977Z,10.14
2019-05-09T01:13:03.557Z,10.18
2019-05-09T01:13:43.705Z,10.16
2019-05-09T01:14:24.395Z,10.16
2019-05-09T01:15:04.978Z,10.22
2019-05-09T01:15:45.844Z,10.1
2019-05-09T01:16:26.290Z,10.29
2019-05-09T01:17:07.170Z,10.2
2019-05-09T01:17:48.954Z,10.24
2019-05-09T01:18:29.452Z,10.26
2019-05-09T01:19:53.682Z,10.29
2019-05-09T01:20:33.281Z,10.36
2019-05-09T01:21:13.579Z,10.44
2019-05-09T01:21:54.343Z,10.43
2019-05-09T01:22:34.435Z,10.49
2019-05-09T01:23:14.868Z,10.43
2019-05-09T01:23:55.267Z,10.49
2019-05-09T01:24:35.633Z,10.55
2019-05-09T01:25:16.012Z,10.51
2019-05-09T01:25:56.427Z,10.49
2019-05-09T01:26:39.069Z,10.6
2019-05-09T01:27:23.308Z,10.57
2019-05-09T01:28:03.506Z,10.63
2019-05-09T01:28:44.275Z,10.6
2019-05-09T01:29:24.079Z,10.66
2019-05-09T01:30:06.119Z,10.57
2019-05-09T01:30:48.069Z,10.58
2019-05-09T01:31:33.805Z,10.49
2019-05-09T01:32:20.132Z,10.47
2019-05-09T01:33:04.308Z,10.52
2019-05-09T01:33:53.343Z,10.38
2019-05-09T01:39:27.790Z,10.31
2019-05-09T01:40:18.269Z,10.22
2019-05-09T01:41:07.524Z,10.22
2019-05-09T01:41:55.447Z,10.26
2019-05-09T01:42:48.297Z,10.25
2019-05-09T01:43:37.432Z,10.24
2019-05-09T01:44:28.128Z,10.26
2019-05-09T01:45:15.642Z,10.26
2019-05-09T01:46:14.417Z,10.24
2019-05-09T01:47:06.083Z,10.2
2019-05-09T01:47:59.200Z,10.22
2019-05-09T01:49:37.122Z,10.25
2019-05-09T01:51:23.070Z,10.16
2019-05-09T01:52:11.114Z,10.24
2019-05-09T01:52:59.400Z,10.25
2019-05-09T01:53:53.126Z,10.18
2019-05-09T01:54:43.544Z,10.25
2019-05-09T01:56:44.215Z,10.29
2019-05-09T01:57:24.477Z,10.28
2019-05-09T01:58:05.193Z,10.28
2019-05-09T01:58:45.554Z,10.25
2019-05-09T01:59:26.059Z,10.2
2019-05-09T02:00:07.142Z,10.2
2019-05-09T02:00:49.136Z,10.25
2019-05-09T02:01:30.193Z,10.26
2019-05-09T02:02:11.013Z,10.36
2019-05-09T02:02:53.992Z,10.35
2019-05-09T02:03:33.790Z,10.28
2019-05-09T02:04:15.688Z,10.35
2019-05-09T02:04:56.000Z,10.36
2019-05-09T02:05:36.458Z,10.32
2019-05-09T02:06:17.774Z,10.36
2019-05-09T02:06:58.270Z,10.34
2019-05-09T02:07:39.059Z,10.35
2019-05-09T02:08:19.568Z,10.39
2019-05-09T02:10:23.011Z,10.47
2019-05-09T02:12:18.792Z,10.58
2019-05-09T02:13:05.043Z,10.54
2019-05-09T02:13:58.051Z,10.51
2019-05-09T02:14:49.505Z,10.46
2019-05-09T02:16:57.450Z,10.42
2019-05-09T02:17:57.580Z,10.42
2019-05-09T02:18:45.270Z,10.35
2019-05-09T02:19:36.372Z,10.34
2019-05-09T02:20:26.633Z,10.32
2019-05-09T02:21:15.872Z,10.34
2019-05-09T02:22:06.127Z,10.32
2019-05-09T02:22:58.120Z,10.35
2019-05-09T02:23:48.061Z,10.38
2019-05-09T02:24:39.557Z,10.35
2019-05-09T02:25:33.478Z,10.38
2019-05-09T02:26:23.989Z,10.39
2019-05-09T02:27:13.216Z,10.44
2019-05-09T02:28:05.068Z,10.49
2019-05-09T02:30:08.458Z,10.55
2019-05-09T02:30:58.192Z,10.43
2019-05-09T02:31:46.997Z,10.51
2019-05-09T02:32:36.488Z,10.46
2019-05-09T02:34:58.539Z,10.57
2019-05-09T02:35:47.143Z,10.65
2019-05-09T02:36:19.066Z,10.69
2019-05-09T02:36:58.913Z,10.65
2019-05-09T02:37:39.422Z,10.68
2019-05-09T02:38:20.115Z,10.66
2019-05-09T02:39:02.181Z,10.58
2019-05-09T02:39:44.025Z,10.6
2019-05-09T02:40:23.554Z,10.6
2019-05-09T02:41:03.891Z,10.57
2019-05-09T02:41:59.391Z,10.57
2019-05-09T02:42:24.913Z,10.58
2019-05-09T02:43:05.310Z,10.52
2019-05-09T02:43:49.100Z,10.54
2019-05-09T02:45:08.290Z,10.39
2019-05-09T02:45:51.699Z,10.46
2019-05-09T02:46:29.317Z,10.46
2019-05-09T02:47:08.957Z,10.49
2019-05-09T02:47:49.477Z,10.42
2019-05-09T02:48:30.832Z,10.42
2019-05-09T02:49:14.798Z,10.38
2019-05-09T02:49:58.860Z,10.38
2019-05-09T02:50:38.494Z,10.31
2019-05-09T02:51:18.739Z,10.31
2019-05-09T02:51:59.132Z,10.32
2019-05-09T02:52:39.731Z,10.35
2019-05-09T02:53:28.832Z,10.39
2019-05-09T02:54:09.744Z,10.29
2019-05-09T02:54:50.147Z,10.28
2019-05-09T02:55:29.571Z,10.24
2019-05-09T02:56:09.975Z,10.26
2019-05-09T02:56:51.028Z,10.26
2019-05-09T02:57:42.450Z,10.32
2019-05-09T02:58:23.905Z,10.28
2019-05-09T02:59:04.249Z,10.31
2019-05-09T02:59:55.506Z,10.2
2019-05-09T03:00:35.789Z,10.24
2019-05-09T03:01:18.880Z,10.29
2019-05-09T03:01:58.504Z,10.25
2019-05-09T03:02:38.808Z,10.22
2019-05-09T03:03:19.766Z,10.24
2019-05-09T03:04:02.700Z,10.25
2019-05-09T03:04:44.304Z,10.24
2019-05-09T03:05:24.761Z,10.31
2019-05-09T03:06:05.044Z,10.28
2019-05-09T03:07:28.800Z,10.25
2019-05-09T03:08:09.567Z,10.25
2019-05-09T03:08:49.401Z,10.29
2019-05-09T03:09:29.723Z,10.29
2019-05-09T03:10:10.160Z,10.34
2019-05-09T03:10:50.987Z,10.28
2019-05-09T03:11:31.248Z,10.24
2019-05-09T03:12:25.885Z,10.31
2019-05-09T03:12:52.115Z,10.29
2019-05-09T03:13:32.512Z,10.29
2019-05-09T03:14:12.871Z,10.31
2019-05-09T03:14:53.310Z,10.35
2019-05-09T03:15:42.510Z,10.31
2019-05-09T03:16:24.817Z,10.35
2019-05-09T03:17:08.705Z,10.36
2019-05-09T03:17:49.622Z,10.31
2019-05-09T03:18:28.890Z,10.36
2019-05-09T03:19:09.457Z,10.35
2019-05-09T03:19:49.878Z,10.38
2019-05-09T03:20:30.389Z,10.43
2019-05-09T03:21:11.781Z,10.46
2019-05-09T03:21:52.086Z,10.34
2019-05-09T03:22:32.580Z,10.38
2019-05-09T03:23:13.135Z,10.49
2019-05-09T03:23:53.472Z,10.47
2019-05-09T03:24:39.029Z,10.47
2019-05-09T03:32:25.289Z,10.44
2019-05-09T03:33:09.789Z,10.32
2019-05-09T03:33:50.002Z,10.36
2019-05-09T03:34:30.012Z,10.35
2019-05-09T03:35:09.367Z,10.32
2019-05-09T03:35:51.698Z,10.29
2019-05-09T03:36:31.901Z,10.47
2019-05-09T03:37:13.932Z,10.36
2019-05-09T03:37:54.290Z,10.39
2019-05-09T03:39:18.471Z,10.39
2019-05-09T03:39:58.183Z,10.49
2019-05-09T03:40:44.007Z,10.46
2019-05-09T03:41:24.631Z,10.47
2019-05-09T03:42:05.088Z,10.44
2019-05-09T03:42:45.471Z,10.46
2019-05-09T03:43:27.425Z,10.49
2019-05-09T03:44:07.294Z,10.43
2019-05-09T03:44:47.646Z,10.49
2019-05-09T03:45:29.908Z,10.49
2019-05-09T03:46:11.454Z,10.43
2019-05-09T03:46:53.539Z,10.49
2019-05-09T03:47:37.637Z,10.52
2019-05-09T03:48:17.958Z,10.52
2019-05-09T03:48:58.237Z,10.54
2019-05-09T03:49:37.671Z,10.55
2019-05-09T03:50:17.971Z,10.55
2019-05-09T03:50:58.165Z,10.57
2019-05-09T03:51:39.732Z,10.6
2019-05-09T03:52:20.554Z,10.57
2019-05-09T03:53:00.889Z,10.65
2019-05-09T03:53:41.875Z,10.57
2019-05-09T03:54:22.309Z,10.58
2019-05-09T03:55:03.127Z,10.6
2019-05-09T03:55:43.543Z,10.57
2019-05-09T03:56:23.917Z,10.6
2019-05-09T03:57:04.789Z,10.65
2019-05-09T03:57:44.998Z,10.57
2019-05-09T03:58:27.944Z,10.55
2019-05-09T03:59:08.281Z,10.58
2019-05-09T03:59:48.088Z,10.68
2019-05-09T04:00:28.307Z,10.73
2019-05-09T04:01:10.741Z,10.66
2019-05-09T04:01:50.400Z,10.72
2019-05-09T04:02:30.547Z,10.86
2019-05-09T04:03:10.911Z,10.9
2019-05-09T04:03:52.156Z,10.9
2019-05-09T04:04:32.678Z,10.91
2019-05-09T04:05:13.003Z,10.94
2019-05-09T04:05:58.580Z,10.93
2019-05-09T04:06:34.516Z,10.9
2019-05-09T04:12:22.225Z,11.11
2019-05-09T04:17:21.574Z,11.19
2019-05-09T04:18:17.837Z,11.2
2019-05-09T04:23:29.292Z,11.13
2019-05-09T04:24:17.819Z,11.16
2019-05-09T04:24:59.984Z,11.2
2019-05-09T04:25:43.772Z,11.2
2019-05-09T04:26:24.865Z,11.21
2019-05-09T04:27:07.765Z,11.21
2019-05-09T05:07:44.333Z,10.46
2019-05-09T05:09:20.290Z,10.55
2019-05-09T05:09:58.870Z,10.55
2019-05-09T05:10:42.993Z,10.58
2019-05-09T05:11:24.039Z,10.66
2019-05-09T05:12:04.961Z,10.8
2019-05-09T05:12:49.875Z,10.87
2019-05-09T05:13:31.629Z,10.91
2019-05-09T05:14:11.985Z,10.91
2019-05-09T05:14:52.378Z,10.94
2019-05-09T05:15:33.263Z,11.06
2019-05-09T05:16:14.788Z,11.11
2019-05-09T05:16:57.877Z,11.23
2019-05-09T05:17:37.734Z,11.31
2019-05-09T05:18:20.218Z,11.46
2019-05-09T05:18:59.449Z,11.63
2019-05-09T05:19:40.414Z,11.9
2019-05-09T05:20:20.502Z,11.97
2019-05-09T05:21:01.915Z,12.04
2019-05-09T05:21:48.403Z,12.13
2019-05-09T05:22:40.055Z,12.31
2019-05-09T05:23:22.637Z,12.59
2019-05-09T05:24:08.164Z,12.8
2019-05-09T05:24:49.153Z,13.19
2019-05-09T05:25:35.642Z,13.25
2019-05-09T05:26:18.284Z,13.41
2019-05-09T05:26:57.929Z,13.51
2019-05-09T05:27:39.913Z,13.48
2019-05-09T05:28:22.207Z,13.46
2019-05-09T05:29:04.832Z,13.29
2019-05-09T05:29:47.598Z,13.22
2019-05-09T05:30:30.218Z,13.16
2019-05-09T05:31:11.806Z,13.19
2019-05-09T05:31:52.222Z,13.22
2019-05-09T05:32:35.478Z,13.48
2019-05-09T05:33:18.284Z,13.61
2019-05-09T05:33:57.734Z,13.71
2019-05-09T05:34:42.012Z,13.86
2019-05-09T05:35:29.143Z,14.11
2019-05-09T05:36:10.059Z,14.31
2019-05-09T05:36:51.615Z,14.48
2019-05-09T05:49:45.049Z,15.91
2019-05-09T05:50:28.042Z,16.16
2019-05-09T05:51:09.473Z,16.36
2019-05-09T05:51:52.434Z,16.48
2019-05-09T05:52:33.301Z,16.65
2019-05-09T05:53:15.170Z,16.78
2019-05-09T05:54:01.539Z,16.87
2019-05-09T05:54:43.477Z,16.91
2019-05-09T05:55:24.714Z,17.09
2019-05-09T05:56:05.534Z,17.25
2019-05-09T05:56:49.942Z,17.45
2019-05-09T05:57:34.002Z,17.51
2019-05-09T05:58:18.034Z,17.6
2019-05-09T05:59:00.661Z,17.43
2019-05-09T05:59:51.386Z,17.27
2019-05-09T06:00:34.521Z,17.39
2019-05-09T06:01:19.110Z,17.47
2019-05-09T06:01:59.200Z,17.68
2019-05-09T06:02:41.990Z,17.63
2019-05-09T06:03:28.936Z,17.68
2019-05-09T06:04:13.825Z,17.87
2019-05-09T06:04:54.483Z,17.83
2019-05-09T06:06:22.202Z,17.57
2019-05-09T06:07:08.441Z,17.49
2019-05-09T06:13:04.950Z,17.17
2019-05-09T06:13:56.318Z,17.12
2019-05-09T06:14:29.750Z,17.14
2019-05-09T06:15:11.916Z,17.18
2019-05-09T06:15:54.408Z,17.15
2019-05-09T06:16:37.521Z,17.18
2019-05-09T06:17:17.838Z,17.09
2019-05-09T06:17:57.827Z,17.14
2019-05-09T06:18:39.877Z,17.07
2019-05-09T06:19:23.389Z,17.02
2019-05-09T06:20:05.446Z,16.88
2019-05-09T06:24:41.859Z,16.77
2019-05-09T06:25:20.999Z,16.91
2019-05-09T06:26:04.789Z,17
2019-05-09T06:26:45.181Z,17.27
2019-05-09T06:27:27.580Z,17.43
2019-05-09T06:28:11.451Z,17.46
2019-05-09T06:28:53.047Z,17.53
2019-05-09T06:29:38.537Z,17.58
2019-05-09T06:30:18.211Z,17.6
2019-05-09T06:30:58.726Z,17.62
2019-05-09T06:31:41.898Z,17.47
2019-05-09T06:32:23.075Z,17.47
2019-05-09T06:33:05.204Z,17.47
2019-05-09T06:33:47.323Z,17.45
2019-05-09T06:34:27.874Z,17.46
2019-05-09T06:35:09.853Z,17.45
2019-05-09T06:35:52.899Z,17.4
2019-05-09T06:36:38.887Z,17.3
2019-05-09T06:37:18.507Z,17.3
2019-05-09T06:38:08.101Z,17.39
2019-05-09T06:38:54.005Z,17.21
2019-05-09T06:39:40.876Z,17.14
2019-05-09T06:40:21.637Z,17.15
2019-05-09T06:41:03.686Z,17.14
2019-05-09T06:41:45.039Z,17.18
2019-05-09T06:42:28.576Z,17.07
2019-05-09T06:43:09.185Z,17.1
2019-05-09T06:44:09.493Z,16.91
2019-05-09T06:44:41.376Z,16.75
2019-05-09T06:45:24.055Z,16.59
2019-05-09T06:46:05.236Z,16.59
2019-05-09T06:46:48.051Z,16.45
2019-05-09T06:47:27.943Z,16.36
2019-05-09T06:48:09.284Z,16.1
2019-05-09T06:49:10.374Z,15.98
2019-05-09T06:49:37.701Z,15.73
2019-05-09T06:50:22.130Z,15.66
2019-05-09T06:51:03.892Z,15.66
2019-05-09T06:51:44.980Z,15.55
2019-05-09T06:52:28.176Z,15.52
2019-05-09T06:53:07.973Z,15.67
2019-05-09T06:54:01.069Z,15.85
2019-05-09T06:54:43.751Z,15.96
2019-05-09T06:55:27.601Z,16.08
2019-05-09T06:56:08.005Z,16.07
2019-05-09T06:56:50.953Z,16.13
2019-05-09T06:57:32.425Z,15.93
2019-05-09T06:58:18.357Z,15.85
2019-05-09T06:58:58.462Z,15.56
2019-05-09T06:59:39.513Z,15.44
2019-05-09T07:00:21.616Z,15.34
2019-05-09T07:01:03.737Z,15.16
2019-05-09T07:01:44.316Z,15.3
2019-05-09T07:02:25.374Z,15.22
2019-05-09T07:03:09.477Z,15.13
2019-05-09T07:03:51.724Z,14.98
2019-05-09T07:04:33.931Z,14.95
2019-05-09T07:05:14.401Z,14.87
2019-05-09T07:05:57.553Z,14.86
2019-05-09T07:06:38.013Z,14.6
2019-05-09T07:08:44.680Z,14.34
2019-05-09T07:09:27.959Z,14.21
2019-05-09T07:10:09.443Z,14.13
2019-05-09T07:10:53.498Z,13.94
2019-05-09T07:12:55.798Z,14.06
2019-05-09T07:13:42.332Z,14.11
2019-05-09T07:14:28.448Z,14.13
2019-05-09T07:15:08.728Z,14.02
2019-05-09T07:15:48.146Z,14.06
2019-05-09T07:16:29.399Z,13.98
2019-05-09T07:17:11.607Z,13.96
2019-05-09T07:17:52.121Z,14.09
2019-05-09T07:18:35.259Z,13.94
2019-05-09T07:19:17.443Z,14.08
2019-05-09T07:20:00.588Z,14.19
2019-05-09T07:20:45.075Z,14.16
2019-05-09T07:21:28.381Z,14.3
2019-05-09T07:22:09.029Z,14.21
2019-05-09T07:22:54.277Z,14.31
2019-05-09T07:23:37.534Z,14.44
2019-05-09T07:24:24.279Z,14.45
2019-05-09T07:25:11.192Z,14.38
2019-05-09T07:26:00.798Z,14.44
2019-05-09T07:26:47.837Z,14.48
2019-05-09T07:27:30.168Z,14.53
2019-05-09T07:28:10.767Z,14.56
2019-05-09T07:28:54.474Z,14.61
2019-05-09T07:29:37.566Z,14.64
2019-05-09T07:30:18.145Z,14.63
2019-05-09T07:31:00.562Z,14.66
2019-05-09T07:31:40.662Z,14.56
2019-05-09T07:32:24.617Z,14.38
2019-05-09T07:33:08.866Z,14.42
2019-05-09T07:33:51.523Z,14.26
2019-05-09T07:34:34.845Z,14.12
2019-05-09T07:35:18.858Z,14.11
2019-05-09T07:35:59.747Z,13.99
2019-05-09T07:36:42.436Z,13.96
2019-05-09T07:37:23.082Z,13.88
2019-05-09T07:38:05.275Z,13.83
2019-05-09T07:38:47.935Z,13.81
2019-05-09T07:39:33.763Z,13.86
2019-05-09T07:40:18.003Z,13.83
2019-05-09T07:41:03.784Z,13.83
2019-05-09T07:41:47.517Z,13.75
2019-05-09T07:42:29.158Z,13.79
2019-05-09T07:43:12.704Z,13.69
2019-05-09T07:44:00.299Z,13.71
2019-05-09T07:44:48.164Z,13.62
2019-05-09T07:45:29.178Z,13.59
2019-05-09T07:46:10.696Z,13.59
2019-05-09T07:46:52.357Z,13.55
2019-05-09T07:47:32.804Z,13.65
2019-05-09T07:48:18.087Z,13.55
2019-05-09T07:49:00.996Z,13.59
2019-05-09T07:49:48.119Z,13.65
2019-05-09T07:50:30.755Z,13.65
2019-05-09T07:51:13.708Z,13.53
2019-05-09T07:52:06.565Z,13.54
2019-05-09T07:52:44.606Z,13.62
2019-05-09T07:53:28.557Z,13.59
2019-05-09T07:54:21.826Z,13.62
2019-05-09T07:55:02.756Z,13.68
2019-05-09T07:55:48.869Z,13.57
2019-05-09T07:56:37.782Z,13.69
2019-05-09T07:57:22.199Z,13.59
2019-05-09T07:58:04.061Z,13.69
2019-05-09T07:58:48.932Z,13.71
2019-05-09T07:59:38.866Z,13.75
2019-05-09T08:00:20.628Z,13.65
2019-05-09T08:01:03.667Z,13.71
2019-05-09T08:01:45.108Z,13.79
2019-05-09T08:02:28.331Z,13.87
2019-05-09T08:03:18.186Z,13.87
2019-05-09T08:04:03.694Z,13.87
2019-05-09T08:06:49.210Z,13.94
2019-05-09T08:07:34.140Z,13.98
2019-05-09T08:19:30.513Z,14.64
2019-05-09T08:20:13.379Z,14.63
2019-05-09T08:20:52.754Z,14.64
2019-05-09T08:21:35.104Z,14.85
2019-05-09T08:22:21.141Z,15
2019-05-09T08:23:04.087Z,15.04
2019-05-09T08:23:44.706Z,15.07
2019-05-09T08:24:27.707Z,15.19
2019-05-09T08:25:08.394Z,15.15
2019-05-09T08:25:51.582Z,15.13
2019-05-09T08:26:39.244Z,15.22
2019-05-09T08:27:17.703Z,15.38
2019-05-09T08:28:03.883Z,15.52
2019-05-09T08:28:47.951Z,15.56
2019-05-09T08:29:28.393Z,15.59
2019-05-09T08:30:09.731Z,15.67
2019-05-09T08:30:52.165Z,15.7
2019-05-09T08:31:35.762Z,15.68
2019-05-09T08:32:24.981Z,15.86
2019-05-09T08:33:20.959Z,16.18
2019-05-09T08:34:05.421Z,16.25
2019-05-09T08:34:48.194Z,16.18
2019-05-09T08:35:33.393Z,16.25
2019-05-09T08:36:17.979Z,16.14
2019-05-09T08:37:00.745Z,16.01
2019-05-09T08:37:59.990Z,16.06
2019-05-09T08:38:44.850Z,16.06
2019-05-09T08:40:48.679Z,16.06
2019-05-09T08:41:29.164Z,15.88
2019-05-09T08:42:11.215Z,15.66
2019-05-09T08:44:35.100Z,15.37
2019-05-09T08:45:25.182Z,15.43
2019-05-09T08:45:57.737Z,15.41
2019-05-09T08:46:38.767Z,15.3
2019-05-09T08:47:19.507Z,15.3
2019-05-09T08:48:01.051Z,15.33
2019-05-09T08:48:43.517Z,15.28
2019-05-09T08:49:24.163Z,15.2
2019-05-09T08:50:09.855Z,15.2
2019-05-09T08:50:50.198Z,15.22
2019-05-09T08:51:38.117Z,15.23
2019-05-09T08:52:20.464Z,15.35
2019-05-09T08:53:02.850Z,15.31
2019-05-09T08:53:47.901Z,15.33
2019-05-09T08:54:33.625Z,15.27
2019-05-09T08:55:14.096Z,15.2
2019-05-09T08:55:58.204Z,15.27
2019-05-09T08:56:38.933Z,15.18
2019-05-09T08:57:19.533Z,15.16
2019-05-09T08:57:59.909Z,15.34
2019-05-09T08:58:41.583Z,15.28
2019-05-09T08:59:23.456Z,15.23
2019-05-09T09:00:08.088Z,15.15
2019-05-09T09:00:49.199Z,15.07
2019-05-09T09:01:52.923Z,15.11
2019-05-09T09:02:23.379Z,15.15
2019-05-09T09:03:08.286Z,15.18
2019-05-09T09:03:50.305Z,15.15
2019-05-09T09:04:33.361Z,15.28
2019-05-09T09:05:18.617Z,15.2
2019-05-09T09:06:04.018Z,15.19
2019-05-09T09:06:48.268Z,15.27
2019-05-09T09:07:30.799Z,15.2
2019-05-09T09:08:14.907Z,15.25
2019-05-09T09:08:57.860Z,15.3
2019-05-09T09:09:41.113Z,15.4
2019-05-09T09:10:21.591Z,15.38
2019-05-09T09:11:07.921Z,15.48
2019-05-09T09:11:47.882Z,15.43
2019-05-09T09:12:34.458Z,15.37
2019-05-09T09:13:13.703Z,15.41
2019-05-09T09:13:54.077Z,15.23
2019-05-09T09:14:34.506Z,15.22
2019-05-09T09:15:17.963Z,15.19
2019-05-09T09:16:11.511Z,15.13
2019-05-09T09:16:41.895Z,15.12
2019-05-09T09:17:21.295Z,15.16
2019-05-09T09:18:01.904Z,15.15
2019-05-09T09:18:42.445Z,15.13
2019-05-09T09:19:23.065Z,14.97
2019-05-09T09:20:04.168Z,14.95
2019-05-09T09:20:48.474Z,14.9
2019-05-09T09:21:28.550Z,14.87
2019-05-09T09:22:09.127Z,14.97
2019-05-09T09:22:51.788Z,14.97
2019-05-09T09:23:43.817Z,14.98
2019-05-09T09:24:19.004Z,15.03
2019-05-09T09:25:02.342Z,14.94
2019-05-09T09:25:45.414Z,14.93
2019-05-09T09:26:28.502Z,14.86
2019-05-09T09:27:09.020Z,14.83
2019-05-09T09:27:55.042Z,14.74
2019-05-09T09:28:37.912Z,14.66
2019-05-09T09:29:18.828Z,14.72
2019-05-09T09:30:16.370Z,14.72
2019-05-09T09:30:48.027Z,14.78
2019-05-09T09:31:29.380Z,14.69
2019-05-09T09:32:13.038Z,14.78
2019-05-09T09:32:54.949Z,14.83
2019-05-09T09:33:39.954Z,14.85
2019-05-09T09:34:27.036Z,14.93
2019-05-09T09:35:07.994Z,14.94
2019-05-09T09:35:51.509Z,15
2019-05-09T09:36:35.020Z,14.97
2019-05-09T09:37:32.650Z,14.93
2019-05-09T09:38:34.096Z,14.82
2019-05-09T09:39:21.096Z,14.82
2019-05-09T09:40:10.169Z,14.67
2019-05-09T09:40:58.048Z,14.75
2019-05-09T09:43:50.540Z,14.72
2019-05-09T09:44:33.704Z,14.75
2019-05-09T09:45:20.674Z,14.63
2019-05-09T09:46:10.258Z,14.64
2019-05-09T09:46:43.670Z,14.67
2019-05-09T09:49:03.998Z,14.61
2019-05-09T09:49:48.967Z,14.6
2019-05-09T09:50:29.488Z,14.57
2019-05-09T09:51:10.961Z,14.38
2019-05-09T09:51:51.692Z,14.34
2019-05-09T09:58:32.810Z,14.85
2019-05-09T09:59:14.140Z,14.72
2019-05-09T09:59:54.648Z,14.83
2019-05-09T10:00:35.213Z,14.82
2019-05-09T10:01:18.149Z,14.91
2019-05-09T10:01:59.925Z,14.95
2019-05-09T10:02:42.384Z,14.98
2019-05-09T10:03:37.146Z,14.97
2019-05-09T10:04:24.124Z,15.04
2019-05-09T10:05:00.917Z,15.01
2019-05-09T10:05:44.694Z,15
2019-05-09T10:06:28.414Z,15.01
2019-05-09T10:07:11.512Z,14.93
2019-05-09T10:07:58.594Z,14.93
2019-05-09T10:08:39.756Z,14.91
2019-05-09T10:09:19.604Z,14.94
2019-05-09T10:10:04.101Z,15
2019-05-09T10:10:48.290Z,14.98
2019-05-09T10:13:52.136Z,14.98
2019-05-09T10:14:32.880Z,15.03
2019-05-09T10:15:13.318Z,15
2019-05-09T10:15:58.362Z,14.97
2019-05-09T10:16:38.979Z,14.93
2019-05-09T10:17:22.346Z,15.01
2019-05-09T10:18:04.554Z,14.95
2019-05-09T10:18:47.797Z,14.95
2019-05-09T10:19:33.026Z,14.97
2019-05-09T10:20:18.121Z,15.01
2019-05-09T10:21:18.341Z,15.01
2019-05-09T10:21:59.376Z,14.93
2019-05-09T10:22:45.802Z,14.91
2019-05-09T10:25:02.284Z,14.94
2019-05-09T10:25:43.968Z,14.82
2019-05-09T10:26:28.335Z,14.83
2019-05-09T10:27:08.634Z,14.71
2019-05-09T10:27:48.320Z,14.75
2019-05-09T10:28:33.370Z,14.82
2019-05-09T11:09:29.044Z,17.53
2019-05-09T11:10:25.362Z,17.66
2019-05-09T11:11:05.941Z,17.74
2019-05-09T11:11:48.979Z,17.81
2019-05-09T11:12:32.538Z,17.83
2019-05-09T11:13:18.121Z,17.77
2019-05-09T11:14:04.824Z,17.81
2019-05-09T11:14:59.348Z,17.86
2019-05-09T11:15:38.638Z,17.89
2019-05-09T11:16:19.231Z,17.94
2019-05-09T11:17:11.469Z,17.95
2019-05-09T11:17:54.901Z,18.17
2019-05-09T11:18:37.349Z,18.26
2019-05-09T11:19:18.561Z,18.21
2019-05-09T11:20:03.940Z,18.19
2019-05-09T11:20:49.432Z,18.09
2019-05-09T11:21:33.591Z,18.04
2019-05-09T11:22:14.866Z,18.19
2019-05-09T11:22:55.271Z,18.25
2019-05-09T11:23:39.279Z,18.29
2019-05-09T11:24:19.239Z,18.28
2019-05-09T11:25:04.173Z,18.36
2019-05-09T11:25:47.307Z,18.32
2019-05-09T11:26:28.964Z,18.2
2019-05-09T11:27:09.893Z,17.99
2019-05-09T11:28:46.360Z,17.86
2019-05-09T11:29:29.065Z,17.84
2019-05-09T11:30:21.977Z,17.87
2019-05-09T11:31:23.416Z,18.1
2019-05-09T11:32:08.045Z,18.25
2019-05-09T11:32:48.179Z,18.35
2019-05-09T11:33:30.627Z,18.29
2019-05-09T11:34:14.741Z,18.46
2019-05-09T11:35:00.994Z,18.51
2019-05-09T11:35:58.037Z,18.5
2019-05-09T11:36:44.972Z,18.56
2019-05-09T11:37:33.413Z,18.62
2019-05-09T11:38:37.680Z,18.89
2019-05-09T11:39:35.064Z,19.09
2019-05-09T11:40:00.058Z,19.02
2019-05-09T11:40:48.283Z,19.07
2019-05-09T11:41:30.550Z,19.16
2019-05-09T11:42:13.677Z,19.07
2019-05-09T11:42:55.536Z,19.23
2019-05-09T11:43:38.896Z,19.23
2019-05-09T11:44:20.370Z,19.27
2019-05-09T11:45:07.939Z,19.42
2019-05-09T11:45:49.195Z,19.45
2019-05-09T11:46:30.879Z,19.31
2019-05-09T11:47:28.366Z,19.49
2019-05-09T11:47:58.198Z,19.52
2019-05-09T11:48:38.115Z,19.75
2019-05-09T11:49:20.268Z,19.79
2019-05-09T11:53:58.059Z,19.71
2019-05-09T11:54:43.881Z,19.71
2019-05-09T11:55:32.285Z,19.71
2019-05-09T11:56:08.174Z,19.62
2019-05-09T11:56:52.467Z,19.72
2019-05-09T11:57:38.376Z,19.71
2019-05-09T12:03:14.446Z,19.94
2019-05-09T12:05:15.236Z,20.02
2019-05-09T12:06:04.540Z,19.86
2019-05-09T12:06:49.284Z,19.9
2019-05-09T12:07:33.770Z,19.76
2019-05-09T12:08:18.678Z,19.83
2019-05-09T12:09:08.549Z,19.79
2019-05-09T12:09:50.730Z,19.78
2019-05-09T12:10:39.299Z,19.76
2019-05-09T12:11:23.133Z,19.97
2019-05-09T12:12:53.320Z,20.08
2019-05-09T12:13:41.301Z,20.07
2019-05-09T12:14:23.760Z,20.15
2019-05-09T12:15:08.727Z,20.23
2019-05-09T12:15:48.872Z,20.33
2019-05-09T12:16:38.077Z,20.26
2019-05-09T12:17:19.239Z,20.26
2019-05-09T12:18:05.493Z,20.31
2019-05-09T12:18:49.090Z,20.34
2019-05-09T12:24:18.554Z,20.12
2019-05-09T12:53:42.383Z,21.03
2019-05-09T13:13:00.847Z,21.83
2019-05-09T13:13:43.210Z,21.56
2019-05-09T13:14:29.753Z,21.48
2019-05-09T13:15:13.273Z,21.42
2019-05-09T13:15:54.902Z,21.31
2019-05-09T13:24:13.235Z,20.51
2019-05-09T13:24:54.212Z,20.57
2019-05-09T13:25:37.935Z,20.66
2019-05-09T13:27:18.677Z,20.87
2019-05-09T13:28:00.654Z,20.91
2019-05-09T13:28:50.162Z,21.03
2019-05-09T13:29:49.235Z,20.98
2019-05-09T13:30:28.565Z,21.16
2019-05-09T13:31:08.390Z,21.13
2019-05-09T13:31:50.776Z,21.13
2019-05-09T13:32:33.181Z,21.19
2019-05-09T13:33:13.234Z,21.22
2019-05-09T13:33:53.719Z,21.36
2019-05-09T13:34:37.802Z,21.31
2019-05-09T13:35:20.994Z,21.28